PAAQ METAR and TAF weather

Enter ICAO airport designator
Station Type Date Time Source
PAAQ METAR 2020/11/25 22:53 UTC NOAA

PAAQ 252253Z 36008G16KT 320V020 10SM -RA OVC036 02/M07 A2904 RMK AO2 RAB27 SLP836 P0000 T00171072


Station Type Date Time Source
PAAQ Decoded METAR 2020/11/25 22:53 UTC NOAA

PALMER MUNICIPAL AIRPORT, AK, United States (PAAQ) 61-36N 149-06W
Nov 25, 2020 - 05:53 PM EST / 2020.11.25 2253 UTC
Wind: from the N (360 degrees) at 9 MPH (8 KT) gusting to 18 MPH (16 KT) (direction variable):0
Visibility: 10 mile(s):0
Sky conditions: overcast
Weather: light rain
Precipitation last hour: A trace
Temperature: 35.1 F (1.7 C)
Dew Point: 19.0 F (-7.2 C)
Relative Humidity: 51%
Pressure (altimeter): 29.04 in. Hg (983 hPa)
ob: PAAQ 252253Z 36008G16KT 320V020 10SM -RA OVC036 02/M07 A2904 RMK AO2 RAB27 SLP836 P0000 T00171072
cycle: 23

Station Type Date Time Source
PAAQ TAF 2020/11/25 18:24 UTC NOAA

TAF PAAQ 251722Z 2518/2618 05018G28KT P6SM BKN100
FM252200 10025G35KT P6SM BKN080
FM260200 VRB06KT P6SM BKN050
FM260400 VRB04KT 3SM -SN OVC025
FM260800 VRB03KT 1 1/2SM -SN OVC015
FM261400 VRB04KT P6SM SCT015 BKN030

Example: see airport list